sensor_id;sensor_type;location;lat;lon;timestamp;pressure;altitude;pressure_sealevel;temperature;humidity
19831;BME280;10076;52.008;4.708;2023-04-02T00:01:43;101297.44;;;9.90;100.00
19831;BME280;10076;52.008;4.708;2023-04-02T00:04:22;101300.31;;;10.01;100.00
19831;BME280;10076;52.008;4.708;2023-04-02T00:07:23;101308.34;;;9.84;100.00
19831;BME280;10076;52.008;4.708;2023-04-02T00:09:55;101305.56;;;9.87;100.00
19831;BME280;10076;52.008;4.708;2023-04-02T00:12:21;101312.06;;;9.95;100.00
19831;BME280;10076;52.008;4.708;2023-04-02T00:14:52;101319.41;;;9.90;100.00
19831;BME280;10076;52.008;4.708;2023-04-02T00:17:20;101325.31;;;9.94;100.00
19831;BME280;10076;52.008;4.708;2023-04-02T00:19:52;101329.66;;;9.81;100.00
19831;BME280;10076;52.008;4.708;2023-04-02T00:22:25;101328.06;;;9.92;100.00
19831;BME280;10076;52.008;4.708;2023-04-02T00:24:53;101330.03;;;9.89;100.00
19831;BME280;10076;52.008;4.708;2023-04-02T00:27:20;101334.38;;;9.90;100.00
19831;BME280;10076;52.008;4.708;2023-04-02T00:29:47;101336.56;;;9.97;100.00
19831;BME280;10076;52.008;4.708;2023-04-02T00:32:20;101339.28;;;9.96;100.00
19831;BME280;10076;52.008;4.708;2023-04-02T00:34:46;101353.59;;;9.92;100.00
19831;BME280;10076;52.008;4.708;2023-04-02T00:37:20;101350.44;;;9.71;100.00
19831;BME280;10076;52.008;4.708;2023-04-02T00:39:49;101355.34;;;9.77;100.00
19831;BME280;10076;52.008;4.708;2023-04-02T00:42:16;101366.22;;;9.87;100.00
19831;BME280;10076;52.008;4.708;2023-04-02T00:44:44;101363.84;;;9.82;100.00
19831;BME280;10076;52.008;4.708;2023-04-02T00:47:33;101372.53;;;9.84;100.00
19831;BME280;10076;52.008;4.708;2023-04-02T00:52:52;101386.31;;;9.74;100.00
19831;BME280;10076;52.008;4.708;2023-04-02T00:55:26;101388.75;;;9.63;100.00
19831;BME280;10076;52.008;4.708;2023-04-02T00:57:59;101396.06;;;9.58;100.00
19831;BME280;10076;52.008;4.708;2023-04-02T01:00:30;101387.47;;;9.84;100.00
19831;BME280;10076;52.008;4.708;2023-04-02T01:03:35;101403.38;;;9.98;100.00
19831;BME280;10076;52.008;4.708;2023-04-02T01:06:11;101401.72;;;9.66;100.00
19831;BME280;10076;52.008;4.708;2023-04-02T01:08:46;101405.03;;;9.69;100.00
19831;BME280;10076;52.008;4.708;2023-04-02T01:11:29;101416.97;;;9.61;100.00
19831;BME280;10076;52.008;4.708;2023-04-02T01:16:46;101422.81;;;9.66;100.00
19831;BME280;10076;52.008;4.708;2023-04-02T01:22:24;101429.09;;;9.50;100.00
19831;BME280;10076;52.008;4.708;2023-04-02T01:24:59;101430.16;;;9.61;100.00
19831;BME280;10076;52.008;4.708;2023-04-02T01:27:31;101429.34;;;9.45;100.00
19831;BME280;10076;52.008;4.708;2023-04-02T01:29:59;101436.31;;;9.46;100.00
19831;BME280;10076;52.008;4.708;2023-04-02T01:32:27;101440.47;;;9.19;100.00
19831;BME280;10076;52.008;4.708;2023-04-02T01:34:54;101441.25;;;9.21;100.00
19831;BME280;10076;52.008;4.708;2023-04-02T01:43:22;101460.44;;;9.08;100.00
19831;BME280;10076;52.008;4.708;2023-04-02T01:45:52;101471.78;;;8.93;100.00
19831;BME280;10076;52.008;4.708;2023-04-02T01:48:23;101460.19;;;8.97;100.00
19831;BME280;10076;52.008;4.708;2023-04-02T01:50:52;101479.63;;;9.10;100.00
19831;BME280;10076;52.008;4.708;2023-04-02T01:53:20;101478.34;;;9.01;100.00
19831;BME280;10076;52.008;4.708;2023-04-02T01:55:50;101477.69;;;8.98;100.00
19831;BME280;10076;52.008;4.708;2023-04-02T01:58:19;101483.13;;;9.10;100.00
19831;BME280;10076;52.008;4.708;2023-04-02T02:01:03;101491.59;;;9.00;100.00
19831;BME280;10076;52.008;4.708;2023-04-02T02:03:30;101488.59;;;8.91;100.00
19831;BME280;10076;52.008;4.708;2023-04-02T02:05:56;101500.91;;;8.75;100.00
19831;BME280;10076;52.008;4.708;2023-04-02T02:08:28;101497.00;;;8.82;100.00
19831;BME280;10076;52.008;4.708;2023-04-02T02:10:55;101502.88;;;8.87;100.00
19831;BME280;10076;52.008;4.708;2023-04-02T02:13:21;101514.25;;;8.87;100.00
19831;BME280;10076;52.008;4.708;2023-04-02T02:15:47;101514.03;;;8.92;100.00
19831;BME280;10076;52.008;4.708;2023-04-02T02:18:16;101524.63;;;8.90;100.00
19831;BME280;10076;52.008;4.708;2023-04-02T02:20:44;101518.84;;;8.84;100.00
19831;BME280;10076;52.008;4.708;2023-04-02T02:23:10;101519.50;;;9.04;100.00
19831;BME280;10076;52.008;4.708;2023-04-02T02:25:37;101528.28;;;8.88;100.00
19831;BME280;10076;52.008;4.708;2023-04-02T02:28:12;101534.13;;;9.09;100.00
19831;BME280;10076;52.008;4.708;2023-04-02T02:30:43;101537.50;;;8.96;100.00
19831;BME280;10076;52.008;4.708;2023-04-02T02:33:17;101540.53;;;8.89;100.00
19831;BME280;10076;52.008;4.708;2023-04-02T02:35:56;101547.59;;;8.71;100.00
19831;BME280;10076;52.008;4.708;2023-04-02T02:41:16;101554.31;;;8.93;100.00
19831;BME280;10076;52.008;4.708;2023-04-02T02:43:51;101558.03;;;8.90;100.00
19831;BME280;10076;52.008;4.708;2023-04-02T02:46:21;101566.34;;;8.65;100.00
19831;BME280;10076;52.008;4.708;2023-04-02T02:48:48;101567.50;;;8.77;100.00
19831;BME280;10076;52.008;4.708;2023-04-02T02:51:21;101564.53;;;8.99;100.00
19831;BME280;10076;52.008;4.708;2023-04-02T02:53:51;101577.53;;;8.86;100.00
19831;BME280;10076;52.008;4.708;2023-04-02T02:56:19;101570.66;;;8.66;100.00
19831;BME280;10076;52.008;4.708;2023-04-02T02:58:47;101581.91;;;8.70;100.00
19831;BME280;10076;52.008;4.708;2023-04-02T03:01:14;101589.81;;;8.70;100.00
19831;BME280;10076;52.008;4.708;2023-04-02T03:03:40;101589.66;;;8.90;100.00
19831;BME280;10076;52.008;4.708;2023-04-02T03:06:08;101593.97;;;8.74;100.00
19831;BME280;10076;52.008;4.708;2023-04-02T03:08:44;101601.03;;;8.73;100.00
19831;BME280;10076;52.008;4.708;2023-04-02T03:11:36;101611.66;;;8.55;100.00
19831;BME280;10076;52.008;4.708;2023-04-02T03:14:16;101620.00;;;8.63;100.00
19831;BME280;10076;52.008;4.708;2023-04-02T03:16:48;101624.47;;;8.61;100.00
19831;BME280;10076;52.008;4.708;2023-04-02T03:19:33;101627.34;;;8.56;100.00
19831;BME280;10076;52.008;4.708;2023-04-02T03:22:55;101631.81;;;8.54;100.00
19831;BME280;10076;52.008;4.708;2023-04-02T03:28:01;101647.91;;;8.48;100.00
19831;BME280;10076;52.008;4.708;2023-04-02T03:30:35;101654.16;;;8.29;100.00
19831;BME280;10076;52.008;4.708;2023-04-02T03:33:08;101652.25;;;8.49;100.00
19831;BME280;10076;52.008;4.708;2023-04-02T03:35:51;101655.59;;;8.53;100.00
19831;BME280;10076;52.008;4.708;2023-04-02T03:38:27;101654.69;;;8.54;100.00
19831;BME280;10076;52.008;4.708;2023-04-02T03:43:28;101663.78;;;8.47;100.00
19831;BME280;10076;52.008;4.708;2023-04-02T03:45:59;101668.84;;;8.33;100.00
19831;BME280;10076;52.008;4.708;2023-04-02T03:48:37;101678.38;;;8.35;100.00
19831;BME280;10076;52.008;4.708;2023-04-02T03:51:12;101690.81;;;8.50;100.00
19831;BME280;10076;52.008;4.708;2023-04-02T03:53:38;101697.38;;;8.42;100.00
19831;BME280;10076;52.008;4.708;2023-04-02T03:56:04;101705.75;;;8.50;100.00
19831;BME280;10076;52.008;4.708;2023-04-02T03:58:40;101707.41;;;8.34;100.00
19831;BME280;10076;52.008;4.708;2023-04-02T04:01:13;101711.75;;;8.35;100.00
19831;BME280;10076;52.008;4.708;2023-04-02T04:03:44;101720.16;;;8.24;100.00
19831;BME280;10076;52.008;4.708;2023-04-02T04:06:22;101733.97;;;8.46;100.00
19831;BME280;10076;52.008;4.708;2023-04-02T04:08:52;101738.50;;;8.26;100.00
19831;BME280;10076;52.008;4.708;2023-04-02T04:11:23;101734.50;;;8.36;100.00
19831;BME280;10076;52.008;4.708;2023-04-02T04:14:06;101741.53;;;8.35;100.00
19831;BME280;10076;52.008;4.708;2023-04-02T04:19:58;101747.31;;;8.25;100.00
19831;BME280;10076;52.008;4.708;2023-04-02T04:22:27;101752.44;;;8.28;100.00
19831;BME280;10076;52.008;4.708;2023-04-02T04:25:06;101767.00;;;8.35;100.00
19831;BME280;10076;52.008;4.708;2023-04-02T04:31:01;101783.22;;;8.44;100.00
19831;BME280;10076;52.008;4.708;2023-04-02T04:33:40;101786.34;;;8.34;100.00
19831;BME280;10076;52.008;4.708;2023-04-02T04:36:20;101790.97;;;8.29;100.00
19831;BME280;10076;52.008;4.708;2023-04-02T04:38:54;101793.09;;;8.21;100.00
19831;BME280;10076;52.008;4.708;2023-04-02T04:41:35;101800.69;;;8.27;100.00
19831;BME280;10076;52.008;4.708;2023-04-02T04:46:51;101807.69;;;8.28;100.00
19831;BME280;10076;52.008;4.708;2023-04-02T04:52:23;101820.25;;;8.02;100.00
19831;BME280;10076;52.008;4.708;2023-04-02T04:54:48;101815.66;;;8.07;100.00
19831;BME280;10076;52.008;4.708;2023-04-02T04:57:21;101827.16;;;8.04;100.00
19831;BME280;10076;52.008;4.708;2023-04-02T05:00:18;101832.03;;;8.13;100.00
19831;BME280;10076;52.008;4.708;2023-04-02T05:02:49;101833.63;;;8.17;100.00
19831;BME280;10076;52.008;4.708;2023-04-02T05:05:19;101836.91;;;8.02;100.00
19831;BME280;10076;52.008;4.708;2023-04-02T05:07:50;101845.22;;;7.73;100.00
19831;BME280;10076;52.008;4.708;2023-04-02T05:10:35;101843.03;;;7.83;100.00
19831;BME280;10076;52.008;4.708;2023-04-02T05:13:13;101852.56;;;7.85;100.00
19831;BME280;10076;52.008;4.708;2023-04-02T05:15:47;101859.19;;;7.74;100.00
19831;BME280;10076;52.008;4.708;2023-04-02T05:18:35;101864.28;;;7.78;100.00
19831;BME280;10076;52.008;4.708;2023-04-02T05:26:15;101884.38;;;7.79;100.00
19831;BME280;10076;52.008;4.708;2023-04-02T05:28:47;101883.53;;;7.79;100.00
19831;BME280;10076;52.008;4.708;2023-04-02T05:31:26;101890.50;;;7.80;100.00
19831;BME280;10076;52.008;4.708;2023-04-02T05:33:55;101910.44;;;7.85;100.00
19831;BME280;10076;52.008;4.708;2023-04-02T05:36:23;101909.88;;;7.77;100.00
19831;BME280;10076;52.008;4.708;2023-04-02T05:38:50;101908.50;;;7.89;100.00
19831;BME280;10076;52.008;4.708;2023-04-02T05:41:29;101913.72;;;7.90;100.00
19831;BME280;10076;52.008;4.708;2023-04-02T05:44:35;101917.69;;;7.79;100.00
19831;BME280;10076;52.008;4.708;2023-04-02T05:47:13;101930.00;;;7.98;100.00
19831;BME280;10076;52.008;4.708;2023-04-02T05:49:48;101939.50;;;8.02;100.00
19831;BME280;10076;52.008;4.708;2023-04-02T05:52:22;101942.41;;;7.95;100.00
19831;BME280;10076;52.008;4.708;2023-04-02T05:57:54;101952.41;;;7.87;100.00
19831;BME280;10076;52.008;4.708;2023-04-02T06:01:12;101960.09;;;7.71;100.00
19831;BME280;10076;52.008;4.708;2023-04-02T06:03:33;101966.00;;;7.76;100.00
19831;BME280;10076;52.008;4.708;2023-04-02T06:06:06;101975.84;;;7.50;100.00
19831;BME280;10076;52.008;4.708;2023-04-02T06:08:41;101976.50;;;7.56;100.00
19831;BME280;10076;52.008;4.708;2023-04-02T06:11:16;101985.38;;;7.53;100.00
19831;BME280;10076;52.008;4.708;2023-04-02T06:13:43;101985.13;;;7.16;100.00
19831;BME280;10076;52.008;4.708;2023-04-02T06:16:12;102004.47;;;7.36;100.00
19831;BME280;10076;52.008;4.708;2023-04-02T06:18:38;102003.03;;;7.49;100.00
19831;BME280;10076;52.008;4.708;2023-04-02T06:21:05;102013.38;;;7.53;100.00
19831;BME280;10076;52.008;4.708;2023-04-02T06:23:36;102016.63;;;7.39;100.00
19831;BME280;10076;52.008;4.708;2023-04-02T06:26:04;102022.91;;;7.35;100.00
19831;BME280;10076;52.008;4.708;2023-04-02T06:29:11;102030.44;;;7.44;100.00
19831;BME280;10076;52.008;4.708;2023-04-02T06:31:49;102039.16;;;7.44;100.00
19831;BME280;10076;52.008;4.708;2023-04-02T06:34:17;102046.84;;;7.27;100.00
19831;BME280;10076;52.008;4.708;2023-04-02T06:36:44;102051.19;;;7.05;100.00
19831;BME280;10076;52.008;4.708;2023-04-02T06:39:17;102054.88;;;7.23;100.00
19831;BME280;10076;52.008;4.708;2023-04-02T06:41:43;102066.59;;;7.14;100.00
19831;BME280;10076;52.008;4.708;2023-04-02T06:44:16;102067.28;;;7.19;100.00
19831;BME280;10076;52.008;4.708;2023-04-02T06:46:48;102065.34;;;7.01;100.00
19831;BME280;10076;52.008;4.708;2023-04-02T06:49:28;102075.78;;;7.26;100.00
19831;BME280;10076;52.008;4.708;2023-04-02T06:51:59;102074.88;;;7.27;100.00
19831;BME280;10076;52.008;4.708;2023-04-02T06:54:25;102078.44;;;7.26;100.00
19831;BME280;10076;52.008;4.708;2023-04-02T06:56:52;102082.56;;;7.08;100.00
19831;BME280;10076;52.008;4.708;2023-04-02T06:59:19;102084.44;;;7.29;100.00
19831;BME280;10076;52.008;4.708;2023-04-02T07:01:50;102094.28;;;7.23;100.00
19831;BME280;10076;52.008;4.708;2023-04-02T07:04:19;102094.16;;;7.03;100.00
19831;BME280;10076;52.008;4.708;2023-04-02T07:06:45;102095.53;;;7.13;100.00
19831;BME280;10076;52.008;4.708;2023-04-02T07:09:11;102100.63;;;7.17;100.00
19831;BME280;10076;52.008;4.708;2023-04-02T07:11:36;102105.97;;;7.14;100.00
19831;BME280;10076;52.008;4.708;2023-04-02T07:14:02;102112.22;;;7.35;100.00
19831;BME280;10076;52.008;4.708;2023-04-02T07:16:30;102121.31;;;7.26;100.00
19831;BME280;10076;52.008;4.708;2023-04-02T07:18:57;102130.06;;;7.27;100.00
19831;BME280;10076;52.008;4.708;2023-04-02T07:21:26;102132.63;;;7.28;100.00
19831;BME280;10076;52.008;4.708;2023-04-02T07:23:52;102140.78;;;7.21;100.00
19831;BME280;10076;52.008;4.708;2023-04-02T07:26:20;102142.03;;;7.34;100.00
19831;BME280;10076;52.008;4.708;2023-04-02T07:28:47;102146.50;;;7.54;100.00
19831;BME280;10076;52.008;4.708;2023-04-02T07:31:18;102152.50;;;7.81;100.00
19831;BME280;10076;52.008;4.708;2023-04-02T07:33:44;102161.47;;;7.75;100.00
19831;BME280;10076;52.008;4.708;2023-04-02T07:36:21;102160.09;;;7.88;100.00
19831;BME280;10076;52.008;4.708;2023-04-02T07:38:47;102175.19;;;7.83;100.00
19831;BME280;10076;52.008;4.708;2023-04-02T07:41:13;102178.66;;;7.84;100.00
19831;BME280;10076;52.008;4.708;2023-04-02T07:43:39;102174.59;;;7.98;100.00
19831;BME280;10076;52.008;4.708;2023-04-02T07:46:05;102175.75;;;7.91;100.00
19831;BME280;10076;52.008;4.708;2023-04-02T07:48:31;102182.94;;;7.86;100.00
19831;BME280;10076;52.008;4.708;2023-04-02T07:50:57;102181.78;;;7.93;100.00
19831;BME280;10076;52.008;4.708;2023-04-02T07:53:27;102186.78;;;7.78;100.00
19831;BME280;10076;52.008;4.708;2023-04-02T07:55:54;102196.06;;;7.88;100.00
19831;BME280;10076;52.008;4.708;2023-04-02T07:58:19;102198.69;;;7.88;100.00
19831;BME280;10076;52.008;4.708;2023-04-02T08:00:45;102201.94;;;7.94;100.00
19831;BME280;10076;52.008;4.708;2023-04-02T08:03:12;102206.16;;;7.98;100.00
19831;BME280;10076;52.008;4.708;2023-04-02T08:05:37;102210.16;;;8.08;100.00
19831;BME280;10076;52.008;4.708;2023-04-02T08:08:03;102224.03;;;8.12;100.00
19831;BME280;10076;52.008;4.708;2023-04-02T08:10:28;102221.53;;;8.31;100.00
19831;BME280;10076;52.008;4.708;2023-04-02T08:12:53;102225.38;;;8.00;100.00
19831;BME280;10076;52.008;4.708;2023-04-02T08:15:19;102231.38;;;8.04;100.00
19831;BME280;10076;52.008;4.708;2023-04-02T08:17:45;102236.03;;;8.20;100.00
19831;BME280;10076;52.008;4.708;2023-04-02T08:20:18;102241.75;;;8.29;100.00
19831;BME280;10076;52.008;4.708;2023-04-02T08:22:45;102253.28;;;8.48;100.00
19831;BME280;10076;52.008;4.708;2023-04-02T08:25:10;102250.31;;;8.57;100.00
19831;BME280;10076;52.008;4.708;2023-04-02T08:27:36;102253.53;;;8.42;100.00
19831;BME280;10076;52.008;4.708;2023-04-02T08:30:01;102254.88;;;8.31;100.00
19831;BME280;10076;52.008;4.708;2023-04-02T08:32:27;102270.59;;;8.32;100.00
19831;BME280;10076;52.008;4.708;2023-04-02T08:34:53;102274.22;;;8.30;100.00
19831;BME280;10076;52.008;4.708;2023-04-02T08:37:18;102284.06;;;8.25;100.00
19831;BME280;10076;52.008;4.708;2023-04-02T08:39:44;102285.53;;;8.32;100.00
19831;BME280;10076;52.008;4.708;2023-04-02T08:42:35;102292.41;;;8.12;100.00
19831;BME280;10076;52.008;4.708;2023-04-02T08:47:50;102296.84;;;8.34;100.00
19831;BME280;10076;52.008;4.708;2023-04-02T08:50:29;102300.50;;;8.53;100.00
19831;BME280;10076;52.008;4.708;2023-04-02T08:52:55;102306.53;;;8.33;100.00
19831;BME280;10076;52.008;4.708;2023-04-02T08:58:43;102318.31;;;8.23;100.00
19831;BME280;10076;52.008;4.708;2023-04-02T09:04:18;102317.72;;;8.83;100.00
19831;BME280;10076;52.008;4.708;2023-04-02T09:06:46;102318.00;;;8.75;100.00
19831;BME280;10076;52.008;4.708;2023-04-02T09:09:13;102313.06;;;8.89;100.00
19831;BME280;10076;52.008;4.708;2023-04-02T09:11:45;102321.44;;;9.20;100.00
19831;BME280;10076;52.008;4.708;2023-04-02T09:14:23;102323.44;;;9.35;100.00
19831;BME280;10076;52.008;4.708;2023-04-02T09:16:58;102332.94;;;9.59;100.00
19831;BME280;10076;52.008;4.708;2023-04-02T09:19:32;102340.19;;;9.54;100.00
19831;BME280;10076;52.008;4.708;2023-04-02T09:22:19;102341.91;;;9.74;100.00
19831;BME280;10076;52.008;4.708;2023-04-02T09:24:53;102354.78;;;9.82;100.00
19831;BME280;10076;52.008;4.708;2023-04-02T09:27:22;102348.72;;;10.00;100.00
19831;BME280;10076;52.008;4.708;2023-04-02T09:29:56;102368.72;;;10.05;100.00
19831;BME280;10076;52.008;4.708;2023-04-02T09:38:30;102381.19;;;10.02;100.00
19831;BME280;10076;52.008;4.708;2023-04-02T09:40:58;102378.78;;;9.76;100.00
19831;BME280;10076;52.008;4.708;2023-04-02T09:45:56;102379.47;;;11.98;100.00
19831;BME280;10076;52.008;4.708;2023-04-02T09:51:29;102379.78;;;14.08;100.00
19831;BME280;10076;52.008;4.708;2023-04-02T09:56:39;102394.00;;;17.31;100.00
19831;BME280;10076;52.008;4.708;2023-04-02T10:01:43;102405.84;;;18.85;99.20
19831;BME280;10076;52.008;4.708;2023-04-02T10:04:34;102404.41;;;19.77;87.15
19831;BME280;10076;52.008;4.708;2023-04-02T10:07:01;102397.34;;;20.27;81.84
19831;BME280;10076;52.008;4.708;2023-04-02T10:09:29;102414.38;;;21.64;84.08
19831;BME280;10076;52.008;4.708;2023-04-02T10:11:56;102416.22;;;22.11;69.75
19831;BME280;10076;52.008;4.708;2023-04-02T10:14:39;102434.09;;;23.13;63.11
19831;BME280;10076;52.008;4.708;2023-04-02T10:17:11;102425.06;;;23.66;57.41
19831;BME280;10076;52.008;4.708;2023-04-02T10:19:52;102431.72;;;23.89;56.42
19831;BME280;10076;52.008;4.708;2023-04-02T10:22:20;102427.59;;;24.62;53.69
19831;BME280;10076;52.008;4.708;2023-04-02T10:24:47;102439.28;;;23.85;53.01
19831;BME280;10076;52.008;4.708;2023-04-02T10:32:31;102441.28;;;24.01;54.46
19831;BME280;10076;52.008;4.708;2023-04-02T10:35:07;102442.47;;;23.54;49.38
19831;BME280;10076;52.008;4.708;2023-04-02T10:40:14;102437.75;;;24.43;51.61
19831;BME280;10076;52.008;4.708;2023-04-02T10:48:20;102460.41;;;25.34;47.62
19831;BME280;10076;52.008;4.708;2023-04-02T10:50:54;102455.31;;;24.98;46.38
19831;BME280;10076;52.008;4.708;2023-04-02T10:56:01;102471.66;;;27.06;44.62
19831;BME280;10076;52.008;4.708;2023-04-02T10:58:30;102472.25;;;27.31;41.37
19831;BME280;10076;52.008;4.708;2023-04-02T11:01:02;102467.78;;;27.99;39.66
19831;BME280;10076;52.008;4.708;2023-04-02T11:03:52;102478.41;;;28.67;40.35
19831;BME280;10076;52.008;4.708;2023-04-02T11:06:25;102477.16;;;28.56;38.39
19831;BME280;10076;52.008;4.708;2023-04-02T11:08:57;102479.75;;;28.86;37.92
19831;BME280;10076;52.008;4.708;2023-04-02T11:11:29;102481.16;;;29.54;37.62
19831;BME280;10076;52.008;4.708;2023-04-02T11:16:43;102491.44;;;30.50;41.86
19831;BME280;10076;52.008;4.708;2023-04-02T11:21:41;102494.66;;;29.62;35.29
19831;BME280;10076;52.008;4.708;2023-04-02T11:24:25;102490.34;;;29.24;36.75
19831;BME280;10076;52.008;4.708;2023-04-02T11:27:14;102495.56;;;29.83;35.50
19831;BME280;10076;52.008;4.708;2023-04-02T11:29:54;102504.69;;;30.11;34.88
19831;BME280;10076;52.008;4.708;2023-04-02T11:37:49;102512.88;;;33.36;32.63
19831;BME280;10076;52.008;4.708;2023-04-02T11:42:41;102504.09;;;33.21;29.93
19831;BME280;10076;52.008;4.708;2023-04-02T11:48:24;102499.47;;;32.19;30.44
19831;BME280;10076;52.008;4.708;2023-04-02T11:50:50;102494.75;;;33.35;30.11
19831;BME280;10076;52.008;4.708;2023-04-02T11:56:07;102491.41;;;33.33;29.87
19831;BME280;10076;52.008;4.708;2023-04-02T12:12:17;102509.03;;;33.94;28.73
19831;BME280;10076;52.008;4.708;2023-04-02T12:14:58;102511.72;;;34.00;28.45
19831;BME280;10076;52.008;4.708;2023-04-02T12:17:37;102512.56;;;34.07;27.28
19831;BME280;10076;52.008;4.708;2023-04-02T12:20:19;102513.97;;;33.22;29.04
19831;BME280;10076;52.008;4.708;2023-04-02T12:22:51;102523.41;;;33.33;28.42
19831;BME280;10076;52.008;4.708;2023-04-02T12:27:46;102529.63;;;34.95;28.19
19831;BME280;10076;52.008;4.708;2023-04-02T12:32:37;102532.47;;;34.27;27.99
19831;BME280;10076;52.008;4.708;2023-04-02T12:35:04;102532.25;;;35.26;27.81
19831;BME280;10076;52.008;4.708;2023-04-02T12:37:30;102534.75;;;35.45;27.10
19831;BME280;10076;52.008;4.708;2023-04-02T12:40:12;102530.56;;;34.58;27.34
19831;BME280;10076;52.008;4.708;2023-04-02T12:42:39;102526.09;;;34.88;27.35
19831;BME280;10076;52.008;4.708;2023-04-02T12:45:05;102522.84;;;35.33;27.76
19831;BME280;10076;52.008;4.708;2023-04-02T12:47:31;102529.06;;;36.64;27.19
19831;BME280;10076;52.008;4.708;2023-04-02T12:49:58;102532.22;;;37.02;25.39
19831;BME280;10076;52.008;4.708;2023-04-02T12:52:26;102529.19;;;36.80;26.03
19831;BME280;10076;52.008;4.708;2023-04-02T12:57:39;102533.03;;;35.51;25.97
19831;BME280;10076;52.008;4.708;2023-04-02T13:02:48;102528.53;;;34.47;26.90
19831;BME280;10076;52.008;4.708;2023-04-02T13:05:32;102530.31;;;33.98;26.93
19831;BME280;10076;52.008;4.708;2023-04-02T13:07:58;102524.31;;;33.20;27.33
19831;BME280;10076;52.008;4.708;2023-04-02T13:10:25;102523.28;;;32.96;28.92
19831;BME280;10076;52.008;4.708;2023-04-02T13:12:59;102519.19;;;30.60;29.05
19831;BME280;10076;52.008;4.708;2023-04-02T13:15:28;102520.22;;;29.32;30.26
19831;BME280;10076;52.008;4.708;2023-04-02T13:20:40;102522.31;;;27.29;33.11
19831;BME280;10076;52.008;4.708;2023-04-02T13:23:33;102532.50;;;26.95;34.45
19831;BME280;10076;52.008;4.708;2023-04-02T13:26:09;102533.56;;;27.02;33.41
19831;BME280;10076;52.008;4.708;2023-04-02T13:28:36;102535.06;;;27.13;34.29
19831;BME280;10076;52.008;4.708;2023-04-02T13:31:01;102538.00;;;28.18;35.53
19831;BME280;10076;52.008;4.708;2023-04-02T13:33:27;102539.66;;;30.08;32.36
19831;BME280;10076;52.008;4.708;2023-04-02T13:35:52;102545.09;;;30.08;31.61
19831;BME280;10076;52.008;4.708;2023-04-02T13:38:17;102538.91;;;30.55;33.12
19831;BME280;10076;52.008;4.708;2023-04-02T13:40:43;102548.59;;;31.86;30.30
19831;BME280;10076;52.008;4.708;2023-04-02T13:43:15;102542.03;;;32.86;29.24
19831;BME280;10076;52.008;4.708;2023-04-02T13:45:41;102547.28;;;33.06;28.86
19831;BME280;10076;52.008;4.708;2023-04-02T13:48:12;102553.38;;;34.28;26.97
19831;BME280;10076;52.008;4.708;2023-04-02T13:50:38;102548.97;;;34.21;26.23
19831;BME280;10076;52.008;4.708;2023-04-02T13:53:05;102546.75;;;34.11;27.06
19831;BME280;10076;52.008;4.708;2023-04-02T13:55:36;102535.28;;;33.07;28.66
19831;BME280;10076;52.008;4.708;2023-04-02T13:58:02;102539.53;;;32.71;27.51
19831;BME280;10076;52.008;4.708;2023-04-02T14:00:29;102546.22;;;33.20;27.98
19831;BME280;10076;52.008;4.708;2023-04-02T14:03:00;102554.84;;;33.87;26.73
19831;BME280;10076;52.008;4.708;2023-04-02T14:05:37;102566.00;;;34.29;26.66
19831;BME280;10076;52.008;4.708;2023-04-02T14:16:41;102556.53;;;33.25;27.47
19831;BME280;10076;52.008;4.708;2023-04-02T14:22:26;102563.09;;;33.24;27.60
19831;BME280;10076;52.008;4.708;2023-04-02T14:27:54;102586.78;;;36.30;25.52
19831;BME280;10076;52.008;4.708;2023-04-02T14:35:46;102581.59;;;34.90;25.71
19831;BME280;10076;52.008;4.708;2023-04-02T14:38:23;102585.47;;;33.84;26.69
19831;BME280;10076;52.008;4.708;2023-04-02T14:41:03;102579.72;;;32.90;27.44
19831;BME280;10076;52.008;4.708;2023-04-02T14:43:49;102584.50;;;31.77;28.20
19831;BME280;10076;52.008;4.708;2023-04-02T14:46:17;102575.34;;;30.12;29.63
19831;BME280;10076;52.008;4.708;2023-04-02T14:53:49;102579.06;;;29.04;30.18
19831;BME280;10076;52.008;4.708;2023-04-02T14:56:18;102583.22;;;28.03;31.58
19831;BME280;10076;52.008;4.708;2023-04-02T14:58:50;102585.63;;;27.60;32.30
19831;BME280;10076;52.008;4.708;2023-04-02T15:01:25;102580.53;;;26.55;33.39
19831;BME280;10076;52.008;4.708;2023-04-02T15:03:56;102590.03;;;26.51;32.99
19831;BME280;10076;52.008;4.708;2023-04-02T15:06:24;102593.41;;;26.45;33.48
19831;BME280;10076;52.008;4.708;2023-04-02T15:09:04;102584.50;;;26.03;33.81
19831;BME280;10076;52.008;4.708;2023-04-02T15:11:35;102580.44;;;25.66;33.95
19831;BME280;10076;52.008;4.708;2023-04-02T15:14:16;102589.66;;;24.97;35.86
19831;BME280;10076;52.008;4.708;2023-04-02T15:16:44;102582.59;;;24.61;35.54
19831;BME280;10076;52.008;4.708;2023-04-02T15:19:12;102581.13;;;24.15;36.13
19831;BME280;10076;52.008;4.708;2023-04-02T15:22:01;102586.69;;;23.23;36.43
19831;BME280;10076;52.008;4.708;2023-04-02T15:27:46;102592.19;;;21.21;43.19
19831;BME280;10076;52.008;4.708;2023-04-02T15:30:26;102595.03;;;20.27;46.02
19831;BME280;10076;52.008;4.708;2023-04-02T15:32:56;102595.53;;;19.46;50.85
19831;BME280;10076;52.008;4.708;2023-04-02T15:35:42;102605.81;;;18.62;55.00
19831;BME280;10076;52.008;4.708;2023-04-02T15:40:55;102592.53;;;18.49;62.66
19831;BME280;10076;52.008;4.708;2023-04-02T15:43:38;102596.88;;;19.41;58.70
19831;BME280;10076;52.008;4.708;2023-04-02T15:51:41;102613.25;;;20.13;52.83
19831;BME280;10076;52.008;4.708;2023-04-02T15:54:34;102603.78;;;19.10;52.41
19831;BME280;10076;52.008;4.708;2023-04-02T15:57:19;102612.75;;;18.30;59.25
19831;BME280;10076;52.008;4.708;2023-04-02T16:06:19;102614.84;;;20.98;49.17
19831;BME280;10076;52.008;4.708;2023-04-02T16:11:29;102615.34;;;22.02;46.32
19831;BME280;10076;52.008;4.708;2023-04-02T16:14:26;102621.91;;;22.18;46.88